createdAt,value
2024-01-08T00:02:44.218Z,-6.88
2024-01-08T00:07:47.178Z,-6.84
2024-01-08T00:12:49.927Z,-6.89
2024-01-08T00:17:53.082Z,-6.97
2024-01-08T00:22:56.352Z,-7.10
2024-01-08T00:27:59.252Z,-6.94
2024-01-08T00:33:02.078Z,-6.91
2024-01-08T00:38:05.053Z,-6.88
2024-01-08T00:43:07.682Z,-6.80
2024-01-08T00:48:10.773Z,-6.84
2024-01-08T00:53:13.513Z,-6.74
2024-01-08T00:58:17.111Z,-6.58
2024-01-08T01:03:20.758Z,-6.55
2024-01-08T01:08:23.679Z,-6.53
2024-01-08T01:13:27.093Z,-6.58
2024-01-08T01:18:30.048Z,-6.72
2024-01-08T01:23:33.631Z,-6.73
2024-01-08T01:28:36.424Z,-6.68
2024-01-08T01:33:39.584Z,-6.76
2024-01-08T01:38:42.464Z,-6.55
2024-01-08T01:43:45.113Z,-6.76
2024-01-08T01:48:48.057Z,-6.53
2024-01-08T01:53:51.047Z,-7.03
2024-01-08T01:58:54.036Z,-7.26
2024-01-08T02:03:57.193Z,-7.40
2024-01-08T02:08:59.987Z,-7.30
2024-01-08T02:14:02.750Z,-7.20
2024-01-08T02:19:06.272Z,-7.38
2024-01-08T02:24:08.971Z,-7.36
2024-01-08T02:29:11.742Z,-7.00
2024-01-08T02:34:14.501Z,-6.91
2024-01-08T02:39:17.216Z,-6.78
2024-01-08T02:44:20.054Z,-6.51
2024-01-08T02:49:22.966Z,-6.53
2024-01-08T02:54:26.415Z,-6.86
2024-01-08T02:59:29.220Z,-7.14
2024-01-08T03:04:31.889Z,-7.17
2024-01-08T03:09:34.625Z,-7.26
2024-01-08T03:14:37.298Z,-7.30
2024-01-08T03:19:40.070Z,-7.45
2024-01-08T03:24:42.769Z,-7.49
2024-01-08T03:29:45.446Z,-7.17
2024-01-08T03:34:48.124Z,-7.12
2024-01-08T03:39:50.835Z,-7.22
2024-01-08T03:44:53.620Z,-7.17
2024-01-08T03:49:57.168Z,-7.28
2024-01-08T03:54:59.903Z,-7.53
2024-01-08T04:00:02.618Z,-7.76
2024-01-08T04:05:06.536Z,-7.88
2024-01-08T04:10:09.577Z,-7.84
2024-01-08T04:15:12.365Z,-7.72
2024-01-08T04:20:15.175Z,-7.66
2024-01-08T04:25:18.253Z,-7.50
2024-01-08T04:30:21.087Z,-7.51
2024-01-08T04:35:23.915Z,-7.53
2024-01-08T04:40:26.554Z,-7.59
2024-01-08T04:45:30.649Z,-7.50
2024-01-08T04:50:33.350Z,-7.44
2024-01-08T04:55:37.453Z,-7.53
2024-01-08T05:00:40.329Z,-7.51
2024-01-08T05:05:43.790Z,-7.52
2024-01-08T05:10:46.647Z,-7.80
2024-01-08T05:15:49.305Z,-7.81
2024-01-08T05:20:51.954Z,-7.82
2024-01-08T05:25:54.774Z,-7.93
2024-01-08T05:30:57.876Z,-8.01
2024-01-08T05:36:01.708Z,-8.22
2024-01-08T05:41:04.588Z,-8.23
2024-01-08T05:46:08.571Z,-8.24
2024-01-08T05:51:11.652Z,-8.36
2024-01-08T05:56:14.401Z,-8.43
2024-01-08T06:01:18.660Z,-8.48
2024-01-08T06:06:22.034Z,-8.60
2024-01-08T06:11:25.436Z,-8.57
2024-01-08T06:16:32.261Z,-8.46
2024-01-08T06:21:34.947Z,-8.24
2024-01-08T06:26:37.761Z,-8.29
2024-01-08T06:31:40.807Z,-8.02
2024-01-08T06:36:43.538Z,-8.02
2024-01-08T06:41:46.354Z,-8.14
2024-01-08T06:46:49.017Z,-8.25
2024-01-08T06:51:51.616Z,-8.17
2024-01-08T06:56:54.293Z,-8.16
2024-01-08T07:01:57.065Z,-8.31
2024-01-08T07:07:00.616Z,-8.26
2024-01-08T07:12:05.097Z,-8.34
2024-01-08T07:17:07.850Z,-8.36
2024-01-08T07:22:10.612Z,-8.58
2024-01-08T07:27:13.502Z,-8.24
2024-01-08T07:32:16.466Z,-8.12
2024-01-08T07:37:19.202Z,-7.87
2024-01-08T07:42:22.182Z,-8.07
2024-01-08T07:47:25.209Z,-8.04
2024-01-08T07:52:37.942Z,-7.83
2024-01-08T07:57:41.784Z,-7.70
2024-01-08T08:02:45.051Z,-7.52
2024-01-08T08:07:48.256Z,-7.42
2024-01-08T08:12:52.988Z,-7.47
2024-01-08T08:25:02.498Z,-7.06
2024-01-08T08:30:07.953Z,-6.97
2024-01-08T08:35:11.577Z,-6.55
2024-01-08T08:40:14.889Z,-6.09
2024-01-08T08:45:19.223Z,-6.03
2024-01-08T08:50:22.300Z,-6.00
2024-01-08T08:55:24.953Z,-5.87
2024-01-08T09:00:27.700Z,-5.25
2024-01-08T09:05:36.875Z,-4.79
2024-01-08T09:10:43.167Z,-4.72
2024-01-08T09:15:46.036Z,-4.60
2024-01-08T09:20:48.813Z,-4.55
2024-01-08T09:25:51.658Z,-4.35
2024-01-08T09:30:55.610Z,-4.65
2024-01-08T09:35:59.008Z,-4.66
2024-01-08T09:41:07.910Z,-4.56
2024-01-08T09:46:20.022Z,-4.37
2024-01-08T09:51:23.695Z,-4.35
2024-01-08T09:56:27.905Z,-4.07
2024-01-08T10:01:30.966Z,-3.83
2024-01-08T10:06:34.097Z,-3.37
2024-01-08T10:11:37.488Z,-3.08
2024-01-08T10:16:54.820Z,-3.24
2024-01-08T10:22:15.364Z,-3.24
2024-01-08T10:27:18.615Z,-3.01
2024-01-08T10:32:24.401Z,-2.53
2024-01-08T10:37:28.377Z,-2.15
2024-01-08T10:42:31.474Z,-1.98
2024-01-08T10:47:45.580Z,-2.05
2024-01-08T10:52:57.831Z,-2.21
2024-01-08T10:58:05.891Z,-1.99
2024-01-08T11:03:08.932Z,-2.01
2024-01-08T11:08:13.837Z,-1.91
2024-01-08T11:13:17.791Z,-1.95
2024-01-08T11:18:31.952Z,-1.99
2024-01-08T11:23:41.044Z,-2.21
2024-01-08T11:29:04.620Z,-2.18
2024-01-08T11:34:32.171Z,-1.99
2024-01-08T11:39:41.085Z,-1.97
2024-01-08T11:44:44.453Z,-1.66
2024-01-08T11:50:07.930Z,-1.40
2024-01-08T11:55:11.405Z,-1.42
2024-01-08T12:00:16.296Z,-1.63
2024-01-08T12:05:19.615Z,-1.82
2024-01-08T12:10:22.792Z,-1.94
2024-01-08T12:15:28.920Z,-1.35
2024-01-08T12:20:31.914Z,-1.20
2024-01-08T12:25:35.409Z,-1.06
2024-01-08T12:30:40.136Z,-1.20
2024-01-08T12:35:43.530Z,-1.42
2024-01-08T12:40:46.545Z,-1.66
2024-01-08T12:45:51.290Z,-1.73
2024-01-08T12:50:54.574Z,-1.68
2024-01-08T12:56:00.414Z,-2.02
2024-01-08T13:01:03.455Z,-1.80
2024-01-08T13:06:08.512Z,-1.72
2024-01-08T13:11:13.109Z,-1.79
2024-01-08T13:16:16.173Z,-2.20
2024-01-08T13:21:19.069Z,-2.34
2024-01-08T13:26:22.074Z,-2.41
2024-01-08T13:31:25.084Z,-2.57
2024-01-08T13:36:27.967Z,-2.39
2024-01-08T13:41:32.318Z,-2.31
2024-01-08T13:46:35.705Z,-2.14
2024-01-08T13:51:38.580Z,-1.87
2024-01-08T13:56:42.740Z,-1.83
2024-01-08T14:01:45.714Z,-2.14
2024-01-08T14:06:48.430Z,-2.35
2024-01-08T14:11:51.267Z,-2.74
2024-01-08T14:16:54.084Z,-2.93
2024-01-08T14:21:57.017Z,-3.32
2024-01-08T14:26:59.785Z,-3.40
2024-01-08T14:32:02.879Z,-3.36
2024-01-08T14:37:05.928Z,-3.44
2024-01-08T14:42:09.088Z,-3.57
2024-01-08T14:47:11.928Z,-3.73
2024-01-08T14:52:15.071Z,-3.98
2024-01-08T14:57:17.993Z,-3.78
2024-01-08T15:02:21.270Z,-3.65
2024-01-08T15:07:24.391Z,-3.67
2024-01-08T15:12:27.411Z,-3.70
2024-01-08T15:17:30.504Z,-3.90
2024-01-08T15:22:33.661Z,-4.11
2024-01-08T15:27:37.423Z,-4.15
2024-01-08T15:32:42.377Z,-4.08
2024-01-08T15:37:45.242Z,-4.16
2024-01-08T15:42:47.928Z,-4.25
2024-01-08T15:47:51.043Z,-4.35
2024-01-08T15:52:53.877Z,-4.49
2024-01-08T15:57:56.618Z,-4.56
2024-01-08T16:02:59.594Z,-4.52
2024-01-08T16:08:04.031Z,-4.50
2024-01-08T16:13:06.786Z,-4.49
2024-01-08T16:18:09.661Z,-4.49
2024-01-08T16:23:12.423Z,-4.40
2024-01-08T16:28:15.354Z,-4.48
2024-01-08T16:33:18.320Z,-4.55
2024-01-08T16:38:21.441Z,-4.40
2024-01-08T16:43:25.258Z,-4.15
2024-01-08T16:48:29.363Z,-3.93
2024-01-08T16:53:33.271Z,-3.75
2024-01-08T16:58:37.012Z,-3.79
2024-01-08T17:03:42.436Z,-3.95
2024-01-08T17:08:45.503Z,-3.67
2024-01-08T17:13:48.794Z,-3.56
2024-01-08T17:18:51.826Z,-3.33
2024-01-08T17:23:54.726Z,-3.20
2024-01-08T17:28:58.842Z,-3.02
2024-01-08T17:34:01.708Z,-2.81
2024-01-08T17:39:04.721Z,-2.73
2024-01-08T17:44:08.630Z,-2.68
2024-01-08T17:49:12.502Z,-2.62
2024-01-08T17:54:15.266Z,-2.66
2024-01-08T17:59:18.262Z,-2.70
2024-01-08T18:04:21.223Z,-2.55
2024-01-08T18:09:24.399Z,-2.52
2024-01-08T18:14:29.117Z,-2.45
2024-01-08T18:19:32.273Z,-2.39
2024-01-08T18:24:37.298Z,-2.31
2024-01-08T18:29:40.117Z,-2.50
2024-01-08T18:34:42.892Z,-2.56
2024-01-08T18:39:45.604Z,-2.59
2024-01-08T18:44:48.366Z,-2.60
2024-01-08T18:49:51.237Z,-2.58
2024-01-08T18:54:54.361Z,-2.52
2024-01-08T18:59:57.913Z,-2.51
2024-01-08T19:05:01.407Z,-2.65
2024-01-08T19:10:19.006Z,-3.13
2024-01-08T19:15:21.756Z,-3.45
2024-01-08T19:20:27.102Z,-3.55
2024-01-08T19:25:42.252Z,-3.32
2024-01-08T19:30:46.114Z,-3.12
2024-01-08T19:35:49.013Z,-3.09
2024-01-08T19:40:51.907Z,-3.05
2024-01-08T19:45:54.964Z,-3.00
2024-01-08T19:50:57.780Z,-2.97
2024-01-08T19:56:00.604Z,-2.89
2024-01-08T20:01:04.466Z,-2.78
2024-01-08T20:06:09.162Z,-2.72
2024-01-08T20:11:15.854Z,-2.64
2024-01-08T20:16:19.833Z,-2.46
2024-01-08T20:21:24.274Z,-2.53
2024-01-08T20:26:27.130Z,-2.75
2024-01-08T20:31:29.804Z,-2.77
2024-01-08T20:36:46.339Z,-2.84
2024-01-08T20:41:50.518Z,-2.78
2024-01-08T20:46:54.146Z,-2.73
2024-01-08T20:51:56.953Z,-2.83
2024-01-08T20:57:02.690Z,-2.83
2024-01-08T21:02:07.156Z,-2.80
2024-01-08T21:07:09.964Z,-2.90
2024-01-08T21:12:12.825Z,-2.70
2024-01-08T21:17:15.837Z,-2.59
2024-01-08T21:22:18.846Z,-2.60
2024-01-08T21:27:21.568Z,-2.66
2024-01-08T21:32:24.812Z,-2.57
2024-01-08T21:37:32.880Z,-2.56
2024-01-08T21:42:36.641Z,-2.72
2024-01-08T21:47:39.412Z,-2.88
2024-01-08T21:52:42.657Z,-2.90
2024-01-08T21:57:45.549Z,-2.80
2024-01-08T22:02:48.696Z,-2.82
2024-01-08T22:07:51.866Z,-2.95
2024-01-08T22:12:56.828Z,-3.02
2024-01-08T22:17:59.874Z,-2.99
2024-01-08T22:23:03.483Z,-2.87
2024-01-08T22:28:09.588Z,-2.84
2024-01-08T22:33:12.543Z,-2.90
2024-01-08T22:38:15.456Z,-2.82
2024-01-08T22:43:18.227Z,-2.70
2024-01-08T22:48:20.936Z,-2.72
2024-01-08T22:53:23.975Z,-2.76
2024-01-08T22:58:26.609Z,-2.86
2024-01-08T23:03:29.462Z,-2.85
2024-01-08T23:08:32.690Z,-2.80
2024-01-08T23:13:35.370Z,-2.75
2024-01-08T23:18:38.191Z,-2.61
2024-01-08T23:23:41.197Z,-2.61
2024-01-08T23:28:44.162Z,-2.66
2024-01-08T23:33:47.148Z,-2.55
2024-01-08T23:38:50.016Z,-2.47
2024-01-08T23:43:52.759Z,-2.43
2024-01-08T23:48:55.543Z,-2.54
2024-01-08T23:53:58.294Z,-2.68
2024-01-08T23:59:01.090Z,-2.68
